Time;durP1;ratioP1;P1;durP2;ratioP2;P2;SDS_P1;SDS_P2;PMS_P1;PMS_P2;Temp;Humidity;BMP_temperature;BMP_pressure;BME280_temperature;BME280_humidity;BME280_pressure;Samples;Min_cycle;Max_cycle;Signal;HPM_P1;HPM_P2
2022/08/26 00:02:00;;;;;;;34.35;25.65;;;;;;;21.54;76.32;101288.34;5092141;28;20128;-74
2022/08/26 00:04:27;;;;;;;30.17;23.88;;;;;;;21.50;76.46;101286.84;5088643;28;20056;-74
2022/08/26 00:06:55;;;;;;;26.15;20.85;;;;;;;21.45;76.64;101288.97;5071958;28;20059;-74
2022/08/26 00:09:24;;;;;;;26.73;21.73;;;;;;;21.38;76.49;101294.78;5083501;28;21635;-74
2022/08/26 00:11:53;;;;;;;28.17;21.25;;;;;;;21.36;77.39;101294.03;5087337;27;20120;-74
2022/08/26 00:14:24;;;;;;;30.25;20.73;;;;;;;21.34;77.54;101292.41;5072793;28;20119;-74
2022/08/26 00:16:57;;;;;;;27.83;20.00;;;;;;;21.29;77.34;101292.72;5077247;28;20811;-74
2022/08/26 00:19:25;;;;;;;28.77;21.23;;;;;;;21.28;77.71;101295.50;5091247;28;20048;-74
2022/08/26 00:21:53;;;;;;;28.42;21.17;;;;;;;21.23;78.09;101285.97;5093136;28;20047;-75
2022/08/26 00:24:22;;;;;;;27.20;20.63;;;;;;;21.20;77.78;101288.00;5087059;28;20049;-74
2022/08/26 00:26:50;;;;;;;24.23;20.08;;;;;;;21.20;77.76;101290.69;5079312;28;20041;-74
2022/08/26 00:29:18;;;;;;;24.92;17.15;;;;;;;21.17;78.08;101297.09;5092756;28;20123;-73
2022/08/26 00:31:48;;;;;;;23.40;17.95;;;;;;;21.15;77.81;101295.47;5092687;28;20044;-73
2022/08/26 00:34:15;;;;;;;25.70;18.52;;;;;;;21.10;77.48;101295.78;5092274;28;20068;-73
2022/08/26 00:36:46;;;;;;;23.17;17.13;;;;;;;21.10;77.75;101296.69;5093303;28;20068;-74
2022/08/26 00:39:18;;;;;;;22.48;15.77;;;;;;;21.10;77.82;101301.16;5092762;28;20040;-74
2022/08/26 00:41:48;;;;;;;25.20;16.30;;;;;;;21.11;78.36;101302.88;5093609;28;20071;-73
2022/08/26 00:44:17;;;;;;;24.98;15.13;;;;;;;21.10;77.93;101298.47;5093365;28;20043;-79
2022/08/26 00:46:54;;;;;;;19.42;14.15;;;;;;;21.10;78.03;101296.69;5088685;28;20045;-78
2022/08/26 00:49:39;;;;;;;19.60;14.95;;;;;;;21.08;78.08;101293.22;5082505;28;20121;-78
2022/08/26 00:52:13;;;;;;;19.52;13.68;;;;;;;21.08;78.26;101289.69;5080989;28;20044;-78
2022/08/26 00:54:59;;;;;;;24.52;13.68;;;;;;;21.12;78.13;101301.91;5091043;28;20040;-79
2022/08/26 00:57:31;;;;;;;23.35;13.85;;;;;;;21.08;78.10;101295.91;5086664;28;20071;-76
2022/08/26 01:00:05;;;;;;;23.35;12.60;;;;;;;21.08;78.21;101303.94;5092046;28;20044;-74
2022/08/26 01:02:32;;;;;;;20.05;13.25;;;;;;;21.08;78.14;101298.59;5074110;28;20041;-74
2022/08/26 01:05:05;;;;;;;21.27;13.10;;;;;;;21.09;78.57;101294.97;5071860;28;20061;-74
2022/08/26 01:07:34;;;;;;;24.83;11.98;;;;;;;21.10;78.03;101294.00;5091349;28;20035;-74
2022/08/26 01:10:09;;;;;;;25.77;12.13;;;;;;;21.15;78.34;101298.16;5089303;28;20187;-75
2022/08/26 01:12:44;;;;;;;17.45;10.85;;;;;;;21.10;77.88;101290.44;5090224;28;20416;-74
2022/08/26 01:15:21;;;;;;;17.80;11.07;;;;;;;21.09;78.13;101286.91;5083458;28;20495;-75
2022/08/26 01:17:49;;;;;;;19.45;9.90;;;;;;;21.10;77.72;101296.69;5086690;28;20074;-73
2022/08/26 01:20:57;;;;;;;21.92;9.93;;;;;;;21.14;77.56;101297.31;5087162;28;20045;-73
2022/08/26 01:23:36;;;;;;;17.85;8.90;;;;;;;21.16;77.32;101298.09;5070985;28;20045;-73
2022/08/26 01:26:11;;;;;;;17.42;8.90;;;;;;;21.20;77.32;101301.41;5077682;27;20044;-72
2022/08/26 01:28:50;;;;;;;14.93;8.50;;;;;;;21.20;77.22;101298.72;5089949;28;20040;-73
2022/08/26 01:31:24;;;;;;;16.42;7.65;;;;;;;21.23;77.30;101296.69;5088528;28;20037;-73
2022/08/26 01:34:09;;;;;;;19.10;8.38;;;;;;;21.23;77.33;101304.72;5090482;28;20041;-73
2022/08/26 01:36:38;;;;;;;14.18;7.50;;;;;;;21.21;77.19;101303.97;5092702;28;20966;-73
2022/08/26 01:39:07;;;;;;;13.98;6.70;;;;;;;21.20;77.07;101304.09;5104666;27;20052;-73
2022/08/26 01:41:36;;;;;;;18.38;7.80;;;;;;;21.20;76.86;101312.13;5094042;28;20535;-73
2022/08/26 01:44:08;;;;;;;21.42;7.10;;;;;;;21.21;77.15;101316.53;5090033;28;20123;-73
2022/08/26 01:46:36;;;;;;;15.20;5.65;;;;;;;21.25;77.52;101318.03;5096585;28;20040;-74
2022/08/26 01:49:07;;;;;;;13.60;6.22;;;;;;;21.26;77.05;101314.38;5094683;28;20112;-77
2022/08/26 01:51:37;;;;;;;15.93;6.70;;;;;;;21.23;76.83;101319.94;5097309;28;20068;-78
2022/08/26 01:54:08;;;;;;;12.88;5.88;;;;;;;21.26;77.13;101320.59;5086412;28;20049;-77
2022/08/26 01:56:40;;;;;;;;;;;;;;;21.23;76.58;101320.81;5095478;28;20033;-78
2022/08/26 01:59:13;;;;;;;7.53;4.97;;;;;;;21.24;76.77;101324.34;5083013;27;20034;-78
2022/08/26 02:01:41;;;;;;;10.27;4.83;;;;;;;21.23;76.61;101327.97;5091021;28;20052;-77
2022/08/26 02:04:25;;;;;;;14.05;4.95;;;;;;;21.20;76.58;101323.69;5094542;28;20102;-74
2022/08/26 02:06:56;;;;;;;;;;;;;;;21.15;76.33;101327.66;5095499;28;20044;-74
2022/08/26 02:09:25;;;;;;;9.55;4.47;;;;;;;21.14;76.50;101329.50;5094662;28;19982;-74
2022/08/26 02:11:54;;;;;;;10.00;4.22;;;;;;;21.14;76.51;101315.22;5079769;28;20041;-74
2022/08/26 02:14:36;;;;;;;13.50;4.60;;;;;;;21.08;76.23;101311.13;5075336;28;20033;-77
2022/08/26 02:17:11;;;;;;;9.55;4.18;;;;;;;21.09;76.56;101318.19;5094875;28;20116;-77
2022/08/26 02:19:44;;;;;;;11.20;4.22;;;;;;;21.06;76.53;101319.28;5096876;28;20043;-77
2022/08/26 02:22:18;;;;;;;16.48;4.35;;;;;;;21.05;76.72;101306.84;5094730;28;20059;-76
2022/08/26 02:24:56;;;;;;;19.10;4.47;;;;;;;21.06;76.63;101316.59;5076027;28;20033;-76
2022/08/26 02:27:29;;;;;;;6.15;3.67;;;;;;;21.06;76.60;101315.75;5076416;28;20048;-77
2022/08/26 02:30:27;;;;;;;8.73;3.75;;;;;;;21.05;76.68;101317.56;5075567;28;20504;-76
2022/08/26 02:32:58;;;;;;;11.32;4.03;;;;;;;21.04;76.58;101323.88;5078993;28;20124;-74
2022/08/26 02:35:25;;;;;;;9.07;3.63;;;;;;;21.01;76.75;101321.38;5090908;28;20052;-74
2022/08/26 02:37:53;;;;;;;10.90;4.05;;;;;;;20.99;76.58;101328.69;5085538;28;20116;-74
2022/08/26 02:40:29;;;;;;;10.80;3.90;;;;;;;20.97;76.77;101322.56;5093815;28;20521;-74
2022/08/26 02:42:56;;;;;;;9.32;3.53;;;;;;;20.94;76.76;101323.66;5094161;28;20931;-75
2022/08/26 02:45:26;;;;;;;10.77;3.50;;;;;;;20.92;76.91;101325.56;5090919;28;20490;-74
2022/08/26 02:47:57;;;;;;;8.18;3.58;;;;;;;20.91;76.91;101323.84;5094048;28;20116;-77
2022/08/26 02:50:26;;;;;;;10.32;3.55;;;;;;;20.90;76.95;101319.44;5086731;28;20045;-76
2022/08/26 02:52:54;;;;;;;8.63;3.25;;;;;;;20.86;77.22;101309.88;5095371;28;20071;-76
2022/08/26 02:55:21;;;;;;;9.98;3.47;;;;;;;20.83;77.03;101307.41;5087115;28;20072;-77
2022/08/26 02:57:51;;;;;;;9.55;3.55;;;;;;;20.78;77.42;101299.69;5073409;28;20072;-77
2022/08/26 03:00:18;;;;;;;7.60;2.80;;;;;;;20.78;77.25;101307.72;5106207;28;20132;-77
2022/08/26 03:02:45;;;;;;;7.63;3.30;;;;;;;20.76;77.66;101304.28;5081711;27;20097;-77
2022/08/26 03:05:12;;;;;;;7.78;3.35;;;;;;;20.77;77.63;101311.38;5073843;28;20063;-77
2022/08/26 03:07:42;;;;;;;10.07;3.42;;;;;;;20.78;78.09;101314.88;5093155;28;20043;-73
2022/08/26 03:10:12;;;;;;;10.43;4.00;;;;;;;20.75;78.25;101315.13;5092042;28;20742;-73
2022/08/26 03:12:44;;;;;;;8.93;2.97;;;;;;;20.75;78.54;101313.28;5077324;28;20045;-73
2022/08/26 03:15:16;;;;;;;8.98;3.10;;;;;;;20.74;78.78;101321.44;5076956;28;20075;-73
2022/08/26 03:17:48;;;;;;;6.25;3.60;;;;;;;20.72;78.79;101324.16;5090333;28;20534;-73
2022/08/26 03:20:17;;;;;;;6.20;3.47;;;;;;;20.71;78.87;101327.78;5092273;28;20048;-76
2022/08/26 03:22:45;;;;;;;10.65;4.75;;;;;;;20.72;79.00;101331.34;5112464;27;20119;-76
2022/08/26 03:25:14;;;;;;;7.22;3.95;;;;;;;20.73;78.90;101335.75;5100700;27;20048;-76
2022/08/26 03:27:42;;;;;;;6.55;3.53;;;;;;;20.75;79.15;101333.88;5078949;28;20044;-74
2022/08/26 03:32:59;;;;;;;11.15;4.18;;;;;;;20.79;79.08;101338.03;5092876;28;20067;-72
2022/08/26 03:35:27;;;;;;;12.90;4.40;;;;;;;20.80;78.99;101342.44;5094224;28;20040;-75
2022/08/26 03:37:54;;;;;;;10.60;3.92;;;;;;;20.81;78.86;101338.81;5092810;28;20051;-74
2022/08/26 03:40:22;;;;;;;13.30;4.55;;;;;;;20.81;78.89;101329.94;5092213;28;20036;-75
2022/08/26 03:42:52;;;;;;;9.57;3.88;;;;;;;20.82;79.27;101327.13;5092454;28;20049;-77
2022/08/26 03:45:20;;;;;;;8.35;3.70;;;;;;;20.83;79.18;101325.28;5090804;28;20075;-76
2022/08/26 03:47:48;;;;;;;8.60;3.45;;;;;;;20.82;79.14;101328.94;5079102;28;20127;-76
2022/08/26 03:50:19;;;;;;;11.38;4.00;;;;;;;20.78;79.07;101321.13;5112102;27;20124;-76
2022/08/26 03:52:54;;;;;;;9.60;3.80;;;;;;;20.77;79.34;101327.44;5081066;28;20060;-72
2022/08/26 03:55:30;;;;;;;10.82;3.13;;;;;;;20.76;79.58;101327.53;5077516;28;20123;-72
2022/08/26 03:57:59;;;;;;;9.02;3.60;;;;;;;20.76;79.64;101331.06;5081506;28;20052;-72
2022/08/26 04:00:27;;;;;;;8.52;3.28;;;;;;;20.76;79.65;101336.44;5071630;28;20052;-74
2022/08/26 04:02:54;;;;;;;28.98;4.72;;;;;;;20.78;79.33;101331.84;5082501;28;20047;-74
2022/08/26 04:05:28;;;;;;;15.80;3.53;;;;;;;20.79;79.47;101338.03;5091367;28;20050;-74
2022/08/26 04:07:55;;;;;;;10.77;3.23;;;;;;;20.80;79.51;101331.72;5075179;28;20574;-74
2022/08/26 04:10:23;;;;;;;11.30;3.50;;;;;;;20.82;79.52;101329.81;5093054;28;20090;-73
2022/08/26 04:12:59;;;;;;;6.47;3.25;;;;;;;20.84;79.43;101335.94;5095023;28;20459;-75
2022/08/26 04:15:27;;;;;;;11.65;3.80;;;;;;;20.84;79.55;101340.41;5088454;28;20538;-74
2022/08/26 04:17:55;;;;;;;11.60;3.28;;;;;;;20.88;79.34;101336.59;5090235;28;20043;-74
2022/08/26 04:20:25;;;;;;;17.10;3.83;;;;;;;20.86;79.49;101343.88;5089218;28;20032;-74
2022/08/26 04:22:52;;;;;;;11.73;3.35;;;;;;;20.85;79.47;101340.34;5097243;27;20036;-74
2022/08/26 04:25:20;;;;;;;12.93;3.15;;;;;;;20.86;79.41;101341.19;5091891;28;20037;-74
2022/08/26 04:27:47;;;;;;;17.02;3.38;;;;;;;20.85;79.35;101329.63;5094010;28;20132;-74
2022/08/26 04:30:14;;;;;;;10.18;2.78;;;;;;;20.88;79.22;101334.75;5096902;28;20044;-71
2022/08/26 04:32:44;;;;;;;7.10;2.35;;;;;;;20.88;79.25;101340.13;5081630;28;20040;-73
2022/08/26 04:35:11;;;;;;;14.75;2.65;;;;;;;20.91;79.09;101341.72;5103850;28;20051;-72
2022/08/26 04:37:39;;;;;;;13.82;2.60;;;;;;;20.93;78.95;101343.38;5096596;28;20123;-73
2022/08/26 04:40:09;;;;;;;11.10;2.95;;;;;;;20.93;78.95;101343.38;5086756;28;20045;-72
2022/08/26 04:42:37;;;;;;;15.65;2.40;;;;;;;20.95;79.12;101343.25;5092215;28;20040;-73
2022/08/26 04:45:04;;;;;;;10.10;1.95;;;;;;;20.96;78.66;101336.94;5085537;28;20124;-73
2022/08/26 04:47:36;;;;;;;10.48;2.00;;;;;;;20.96;78.74;101336.94;5104310;28;20400;-72
2022/08/26 04:50:05;;;;;;;9.13;2.13;;;;;;;20.96;78.89;101347.66;5082922;28;20036;-72
2022/08/26 04:52:35;;;;;;;7.10;1.90;;;;;;;20.96;78.85;101344.97;5084350;28;20553;-72
2022/08/26 04:55:04;;;;;;;14.73;2.30;;;;;;;20.98;78.75;101355.56;5089825;28;20476;-73
2022/08/26 04:57:35;;;;;;;6.00;1.65;;;;;;;21.00;78.59;101351.84;5091515;28;20055;-72
2022/08/26 05:00:06;;;;;;;4.90;1.60;;;;;;;21.01;78.30;101363.41;5086106;28;20074;-72
2022/08/26 05:02:35;;;;;;;4.97;1.80;;;;;;;21.03;78.33;101361.50;5086618;28;20414;-72
2022/08/26 05:05:05;;;;;;;9.65;1.80;;;;;;;21.05;78.29;101359.59;5090249;28;20056;-74
2022/08/26 05:07:34;;;;;;;9.77;1.92;;;;;;;21.08;78.41;101367.41;5087504;28;20725;-71
2022/08/26 05:10:03;;;;;;;5.72;1.50;;;;;;;21.08;77.95;101360.25;5092279;28;20162;-71
2022/08/26 05:12:34;;;;;;;10.45;1.90;;;;;;;21.09;78.23;101363.75;5090258;28;20047;-72
2022/08/26 05:15:05;;;;;;;11.13;2.13;;;;;;;21.10;78.16;101366.38;5090820;28;20055;-71
2022/08/26 05:17:33;;;;;;;8.45;1.95;;;;;;;21.12;77.83;101365.38;5109998;27;20125;-71
2022/08/26 05:20:00;;;;;;;12.23;1.95;;;;;;;21.12;77.41;101368.06;5091640;28;20051;-70
2022/08/26 05:22:27;;;;;;;12.77;2.10;;;;;;;21.16;77.67;101365.09;5091411;27;20504;-72
2022/08/26 05:24:54;;;;;;;4.95;1.27;;;;;;;21.19;77.46;101364.88;5088632;28;20044;-73
2022/08/26 05:27:22;;;;;;;4.65;1.30;;;;;;;21.18;77.50;101381.06;5090069;28;20135;-72
2022/08/26 05:29:49;;;;;;;4.93;1.70;;;;;;;21.17;77.42;101364.09;5089884;28;20033;-72
2022/08/26 05:32:20;;;;;;;13.98;2.10;;;;;;;21.15;77.20;101374.09;5075004;28;20045;-73
2022/08/26 05:34:54;;;;;;;8.88;1.65;;;;;;;21.18;77.44;101376.56;5082209;28;20120;-72
2022/08/26 05:37:21;;;;;;;17.60;2.08;;;;;;;21.18;77.39;101364.97;5095512;28;20087;-73
2022/08/26 05:39:49;;;;;;;7.65;1.50;;;;;;;21.18;77.26;101378.38;5092256;28;20041;-74
2022/08/26 05:42:18;;;;;;;11.27;2.20;;;;;;;21.17;77.38;101377.50;5091175;28;20891;-76
2022/08/26 05:44:51;;;;;;;9.38;2.22;;;;;;;21.19;77.35;101383.63;5099446;28;20071;-75
2022/08/26 05:47:23;;;;;;;8.85;1.63;;;;;;;21.21;77.11;101378.19;5099711;28;20582;-75
2022/08/26 05:49:51;;;;;;;9.55;1.42;;;;;;;21.23;77.05;101381.59;5103399;28;20474;-72
2022/08/26 05:52:19;;;;;;;8.63;1.77;;;;;;;21.21;77.03;101389.75;5091932;28;20116;-72
2022/08/26 05:54:46;;;;;;;5.50;1.40;;;;;;;21.24;77.07;101386.00;5090222;28;20037;-72
2022/08/26 05:57:15;;;;;;;12.23;2.20;;;;;;;21.27;77.29;101393.84;5090198;28;20151;-75
2022/08/26 05:59:44;;;;;;;7.28;1.60;;;;;;;21.29;77.06;101391.06;5090869;28;20124;-76
2022/08/26 06:02:11;;;;;;;13.25;1.85;;;;;;;21.31;76.81;101390.03;5086219;28;20894;-74
2022/08/26 06:04:39;;;;;;;4.57;1.48;;;;;;;21.31;76.77;101395.38;5090207;28;20585;-74
2022/08/26 06:07:07;;;;;;;9.90;1.63;;;;;;;21.35;76.72;101387.97;5091967;28;20051;-74
2022/08/26 06:09:38;;;;;;;20.58;2.20;;;;;;;21.38;76.56;101396.69;5090265;28;20056;-74
2022/08/26 06:12:11;;;;;;;7.18;1.95;;;;;;;21.40;76.43;101397.44;5085093;28;20070;-73
2022/08/26 06:14:42;;;;;;;6.22;1.45;;;;;;;21.41;76.60;101398.28;5113507;27;20048;-73
2022/08/26 06:17:10;;;;;;;6.97;1.13;;;;;;;21.47;76.21;101397.00;5098432;28;20994;-73
2022/08/26 06:19:38;;;;;;;7.72;1.17;;;;;;;21.50;76.20;101394.97;5086669;28;20053;-73
2022/08/26 06:25:36;;;;;;;7.22;1.38;;;;;;;21.52;76.08;101395.75;5086554;28;20036;-73
2022/08/26 06:27:39;;;;;;;6.72;1.25;;;;;;;21.65;75.40;101398.47;5078843;28;20055;-74
2022/08/26 06:30:08;;;;;;;7.35;1.50;;;;;;;21.67;75.32;101395.69;5095226;28;20032;-72
2022/08/26 06:32:35;;;;;;;9.88;1.50;;;;;;;21.69;75.38;101400.00;5094291;28;20055;-74
2022/08/26 06:35:05;;;;;;;5.30;1.20;;;;;;;21.75;75.61;101406.75;5099808;28;20045;-72
2022/08/26 06:37:38;;;;;;;12.43;2.15;;;;;;;21.78;75.06;101411.88;5085833;28;20498;-72
2022/08/26 06:40:08;;;;;;;5.13;1.17;;;;;;;21.81;75.06;101411.69;5093537;28;20793;-75
2022/08/26 06:42:37;;;;;;;6.60;1.27;;;;;;;21.81;75.02;101414.38;5085746;28;20049;-75
2022/08/26 06:45:06;;;;;;;5.68;1.30;;;;;;;21.86;74.80;101411.38;5091230;28;20040;-75
2022/08/26 06:47:35;;;;;;;4.03;1.15;;;;;;;21.89;74.59;101419.22;5093259;28;20044;-74
2022/08/26 06:50:02;;;;;;;15.05;1.65;;;;;;;21.88;74.18;101418.34;5092205;28;20195;-74
2022/08/26 06:52:29;;;;;;;8.77;1.40;;;;;;;21.85;74.03;101423.94;5092828;28;20079;-74
2022/08/26 06:54:56;;;;;;;8.40;1.60;;;;;;;21.82;74.40;101425.97;5093316;28;20047;-74
2022/08/26 06:57:24;;;;;;;11.25;1.63;;;;;;;21.79;74.44;101424.34;5092979;28;20515;-74
2022/08/26 06:59:51;;;;;;;4.75;1.00;;;;;;;21.83;74.47;101428.53;5092669;28;20045;-75
2022/08/26 07:02:19;;;;;;;6.88;1.40;;;;;;;21.86;73.67;101430.16;5091353;27;20119;-75
2022/08/26 07:04:46;;;;;;;8.35;1.58;;;;;;;21.86;73.10;101431.03;5072344;28;20061;-75
2022/08/26 07:07:17;;;;;;;6.35;1.17;;;;;;;21.88;73.88;101425.53;5084205;28;20112;-75
2022/08/26 07:09:47;;;;;;;9.95;1.38;;;;;;;21.96;73.73;101433.91;5074177;28;20048;-74
2022/08/26 07:12:18;;;;;;;5.13;1.08;;;;;;;22.08;72.91;101423.31;5089412;28;20112;-76
2022/08/26 07:14:46;;;;;;;4.60;1.10;;;;;;;22.09;72.68;101430.38;5087640;28;20041;-73
2022/08/26 07:17:15;;;;;;;4.00;1.00;;;;;;;22.08;72.53;101424.13;5093004;28;20049;-73
2022/08/26 07:19:42;;;;;;;6.97;1.50;;;;;;;22.20;72.42;101433.19;5092564;28;20480;-71
2022/08/26 07:22:09;;;;;;;7.82;1.40;;;;;;;22.24;72.17;101425.75;5088829;28;20051;-72
2022/08/26 07:24:42;;;;;;;6.70;1.50;;;;;;;22.28;71.88;101435.34;5082405;28;20041;-74
2022/08/26 07:27:14;;;;;;;10.13;1.20;;;;;;;22.31;71.61;101432.41;5084607;28;20055;-74
2022/08/26 07:29:42;;;;;;;7.25;1.30;;;;;;;22.40;71.73;101438.97;5091296;28;20112;-74
2022/08/26 07:32:13;;;;;;;9.32;1.63;;;;;;;22.53;71.19;101442.53;5082895;28;20110;-76
2022/08/26 07:34:41;;;;;;;8.80;1.67;;;;;;;22.61;70.79;101447.34;5072007;28;20068;-75
2022/08/26 07:37:09;;;;;;;6.47;1.25;;;;;;;22.62;69.96;101439.19;5086183;28;20076;-73
2022/08/26 07:39:37;;;;;;;5.25;1.38;;;;;;;22.70;69.87;101443.13;5092065;28;20052;-77
2022/08/26 07:42:08;;;;;;;8.18;1.55;;;;;;;22.69;69.50;101447.63;5089110;28;20036;-75
2022/08/26 07:44:38;;;;;;;18.23;1.77;;;;;;;22.70;70.16;101453.88;5092419;28;20114;-77
2022/08/26 07:47:08;;;;;;;6.22;1.50;;;;;;;22.77;69.96;101455.16;5091381;28;20045;-78
2022/08/26 07:49:37;;;;;;;10.75;1.67;;;;;;;22.90;69.39;101458.66;5107571;28;20052;-75
2022/08/26 07:52:05;;;;;;;10.20;1.50;;;;;;;22.86;69.30;101459.00;5092067;28;20037;-75
2022/08/26 07:54:32;;;;;;;6.60;1.38;;;;;;;22.87;69.44;101458.03;5091961;28;20037;-76
2022/08/26 07:57:00;;;;;;;8.23;1.42;;;;;;;22.94;69.11;101457.47;5089791;28;20044;-74
2022/08/26 07:59:34;;;;;;;4.25;1.30;;;;;;;23.05;68.79;101459.38;5073985;28;20045;-74
2022/08/26 08:02:01;;;;;;;6.80;1.30;;;;;;;23.11;68.75;101461.59;5071678;28;20103;-74
2022/08/26 08:04:29;;;;;;;6.43;1.40;;;;;;;23.16;68.17;101466.63;5080194;28;20092;-75
2022/08/26 08:06:56;;;;;;;7.10;1.55;;;;;;;23.20;67.76;101467.28;5091833;28;20048;-74
2022/08/26 08:09:24;;;;;;;5.90;1.30;;;;;;;23.22;67.33;101466.22;5091567;28;20128;-76
2022/08/26 08:11:53;;;;;;;5.85;1.40;;;;;;;23.29;67.42;101471.13;5090514;28;20135;-74
2022/08/26 08:14:20;;;;;;;7.93;1.33;;;;;;;23.33;66.72;101464.56;5074425;28;20480;-76
2022/08/26 08:16:49;;;;;;;13.18;1.60;;;;;;;23.35;67.28;101468.00;5071739;28;20045;-75
2022/08/26 08:19:21;;;;;;;4.53;0.95;;;;;;;23.48;67.11;101468.78;5071634;28;20080;-75
2022/08/26 08:21:49;;;;;;;10.15;1.77;;;;;;;23.61;65.80;101460.63;5070815;28;20496;-74
2022/08/26 08:24:17;;;;;;;9.07;1.60;;;;;;;23.69;65.58;101460.06;5071223;28;20114;-75
2022/08/26 08:26:44;;;;;;;9.40;1.20;;;;;;;23.79;65.93;101460.22;5072253;28;20582;-78
2022/08/26 08:29:12;;;;;;;9.57;1.60;;;;;;;23.74;65.42;101455.19;5091779;28;20381;-74
2022/08/26 08:31:40;;;;;;;5.55;1.20;;;;;;;23.65;64.59;101461.28;5091331;28;20037;-74
2022/08/26 08:34:27;;;;;;;5.32;1.10;;;;;;;23.44;65.39;101469.13;5089548;28;20127;-75
2022/08/26 08:36:55;;;;;;;4.57;1.20;;;;;;;23.32;65.79;101465.53;5087580;28;20537;-75
2022/08/26 08:39:25;;;;;;;11.75;1.55;;;;;;;23.21;65.95;101472.59;5091582;28;20556;-73
2022/08/26 08:42:09;;;;;;;6.70;1.00;;;;;;;23.18;66.26;101471.91;5088700;28;20040;-73
2022/08/26 08:44:42;;;;;;;8.07;1.38;;;;;;;23.06;66.38;101473.66;5102159;28;20043;-76
2022/08/26 08:47:32;;;;;;;6.55;1.00;;;;;;;23.01;67.15;101473.16;5107430;27;20134;-75
2022/08/26 08:50:22;;;;;;;4.18;1.08;;;;;;;22.96;66.76;101477.03;5074915;28;20072;-76
2022/08/26 08:53:15;;;;;;;7.70;1.10;;;;;;;22.90;66.54;101477.50;5087465;28;20040;-76
2022/08/26 08:55:48;;;;;;;13.85;1.92;;;;;;;22.86;67.34;101470.59;5087443;28;20415;-74
2022/08/26 08:58:23;;;;;;;8.95;1.17;;;;;;;22.84;67.65;101477.91;5093550;28;20044;-73
2022/08/26 09:01:03;;;;;;;4.47;1.00;;;;;;;22.87;67.65;101479.53;5077156;28;20479;-74
2022/08/26 09:04:16;;;;;;;6.43;1.13;;;;;;;22.90;67.02;101482.88;5094288;28;20322;-74
2022/08/26 09:06:53;;;;;;;6.97;1.10;;;;;;;22.89;66.60;101485.69;5100736;28;20044;-74
2022/08/26 09:09:44;;;;;;;6.82;1.40;;;;;;;22.85;67.05;101485.00;5083782;28;20116;-75
2022/08/26 09:12:22;;;;;;;6.88;1.25;;;;;;;22.86;67.31;101480.50;5113525;27;20048;-75
2022/08/26 09:15:05;;;;;;;7.00;1.10;;;;;;;22.96;66.96;101482.41;5098674;27;20108;-74
2022/08/26 09:18:01;;;;;;;4.55;1.17;;;;;;;23.20;65.98;101480.75;5096081;28;20041;-76
2022/08/26 09:20:56;;;;;;;7.97;1.23;;;;;;;23.46;65.34;101478.78;5073644;28;20099;-74
2022/08/26 09:23:25;;;;;;;5.57;1.10;;;;;;;23.55;65.49;101477.25;5108289;28;20056;-75
2022/08/26 09:26:02;;;;;;;3.83;0.98;;;;;;;23.71;65.13;101491.25;5109743;28;20156;-75
2022/08/26 09:28:30;;;;;;;8.18;0.95;;;;;;;23.81;64.57;101488.72;5091759;28;20497;-75
2022/08/26 09:31:17;;;;;;;8.68;1.63;;;;;;;23.90;63.77;101487.19;5073227;28;20068;-76
2022/08/26 09:33:46;;;;;;;10.48;1.65;;;;;;;23.95;64.10;101485.00;5072951;28;20041;-76
2022/08/26 09:36:32;;;;;;;4.75;1.30;;;;;;;24.10;63.46;101484.81;5083532;28;20102;-74
2022/08/26 09:39:26;;;;;;;6.20;1.38;;;;;;;24.18;62.78;101488.59;5091361;28;20464;-75
2022/08/26 09:42:06;;;;;;;6.68;1.27;;;;;;;24.22;62.79;101475.75;5094607;28;20538;-75
2022/08/26 09:44:55;;;;;;;4.47;1.40;;;;;;;24.23;62.70;101485.53;5094092;28;20041;-75
2022/08/26 09:47:51;;;;;;;7.57;1.33;;;;;;;24.22;62.60;101480.28;5102149;28;20049;-74
2022/08/26 09:50:25;;;;;;;5.95;1.50;;;;;;;24.21;62.82;101483.97;5105671;27;20048;-75
2022/08/26 09:53:10;;;;;;;11.52;1.88;;;;;;;24.25;62.80;101480.06;5103440;28;20040;-75
2022/08/26 09:55:43;;;;;;;;;;;;;;;24.21;63.11;101479.44;5081739;28;20039;-75
2022/08/26 09:58:15;;;;;;;12.73;1.52;;;;;;;24.29;63.02;101486.91;5109634;28;19978;-75
2022/08/26 10:00:57;;;;;;;7.60;1.27;;;;;;;24.27;62.40;101478.06;5092833;28;20052;-76
2022/08/26 10:03:31;;;;;;;9.07;1.45;;;;;;;24.14;62.56;101481.75;5093380;28;20063;-77
2022/08/26 10:06:17;;;;;;;17.02;2.25;;;;;;;23.99;64.04;101481.13;5093554;28;20076;-76
2022/08/26 10:09:12;;;;;;;7.40;1.58;;;;;;;23.52;65.52;101489.13;5082272;28;20037;-74
2022/08/26 10:11:54;;;;;;;4.85;1.50;;;;;;;23.01;67.82;101490.13;5092381;28;20048;-74
2022/08/26 10:14:47;;;;;;;5.85;1.35;;;;;;;22.60;69.34;101488.59;5088134;27;20065;-75
2022/08/26 10:17:32;;;;;;;7.18;1.40;;;;;;;22.27;71.18;101488.16;5082675;28;20126;-75
2022/08/26 10:20:24;;;;;;;6.22;1.58;;;;;;;22.08;71.99;101491.25;5092602;28;20036;-75
2022/08/26 10:23:13;;;;;;;9.07;1.52;;;;;;;21.96;72.49;101486.75;5078206;28;20041;-73
2022/08/26 10:25:58;;;;;;;14.35;1.70;;;;;;;21.93;73.61;101497.69;5093455;28;20037;-76
2022/08/26 10:29:00;;;;;;;9.20;1.75;;;;;;;21.87;74.28;101502.50;5108665;28;20050;-76
2022/08/26 10:31:38;;;;;;;10.00;1.42;;;;;;;21.85;72.85;101496.41;5094763;28;20075;-75
2022/08/26 10:34:09;;;;;;;5.82;1.40;;;;;;;21.82;72.66;101490.38;5093932;28;20496;-74
2022/08/26 10:37:00;;;;;;;8.60;1.60;;;;;;;21.83;73.00;101500.13;5096663;28;20842;-75
2022/08/26 10:40:06;;;;;;;8.27;1.80;;;;;;;21.85;73.11;101501.75;5081622;28;20297;-75
2022/08/26 10:42:40;;;;;;;8.23;1.63;;;;;;;21.88;73.04;101498.00;5088127;28;20044;-74
2022/08/26 10:45:12;;;;;;;6.32;1.38;;;;;;;21.94;73.20;101500.25;5094015;28;20087;-75
2022/08/26 10:48:04;;;;;;;12.40;1.88;;;;;;;22.08;73.48;101493.94;5093674;28;20123;-75
2022/08/26 10:50:40;;;;;;;7.57;1.75;;;;;;;22.18;73.60;101503.06;5092884;28;20069;-75
2022/08/26 10:53:23;;;;;;;6.78;1.42;;;;;;;22.19;72.53;101502.13;5082676;28;20032;-75
2022/08/26 10:56:21;;;;;;;7.30;1.55;;;;;;;22.21;72.56;101495.78;5086406;28;20099;-74
2022/08/26 10:58:52;;;;;;;10.80;1.70;;;;;;;22.27;72.07;101506.13;5090337;28;20502;-73
2022/08/26 11:01:42;;;;;;;5.50;1.60;;;;;;;22.29;72.41;101498.78;5088519;28;20057;-74
2022/08/26 11:04:26;;;;;;;9.88;1.33;;;;;;;22.36;71.28;101494.72;5092334;28;20568;-74
2022/08/26 11:07:45;;;;;;;8.32;1.75;;;;;;;22.43;70.92;101500.56;5088957;28;20040;-73
2022/08/26 11:10:17;;;;;;;9.30;1.48;;;;;;;22.53;71.24;101507.00;5086852;28;20033;-77
2022/08/26 11:12:53;;;;;;;11.38;1.33;;;;;;;22.59;70.66;101498.50;5088481;28;20040;-77
2022/08/26 11:15:20;;;;;;;8.40;1.60;;;;;;;22.63;70.12;101496.44;5090130;28;20490;-75
2022/08/26 11:17:50;;;;;;;11.50;1.60;;;;;;;22.62;70.40;101500.97;5091721;28;20040;-76
2022/08/26 11:20:42;;;;;;;11.68;1.52;;;;;;;22.65;71.19;101502.59;5088975;28;20047;-76
2022/08/26 11:23:18;;;;;;;7.90;1.15;;;;;;;22.68;71.84;101498.81;5092899;28;20070;-75
2022/08/26 11:25:54;;;;;;;6.30;1.42;;;;;;;22.75;71.58;101502.78;5089074;28;20133;-75
2022/08/26 11:28:52;;;;;;;11.90;1.60;;;;;;;22.89;71.27;101496.44;5092683;28;20033;-76
2022/08/26 11:31:25;;;;;;;11.98;1.95;;;;;;;22.98;69.59;101500.25;5099318;27;20080;-75
2022/08/26 11:34:00;;;;;;;7.60;1.30;;;;;;;23.05;68.67;101498.81;5086879;28;20823;-75
2022/08/26 11:36:46;;;;;;;8.20;1.55;;;;;;;23.09;68.51;101495.84;5091544;28;20500;-74
2022/08/26 11:39:45;;;;;;;7.43;1.63;;;;;;;23.14;69.53;101498.19;5095009;28;20115;-74
2022/08/26 11:42:34;;;;;;;5.63;1.65;;;;;;;23.19;68.78;101500.56;5089683;28;20120;-74
2022/08/26 11:45:23;;;;;;;15.00;1.85;;;;;;;23.20;69.05;101502.25;5088461;28;20045;-75
2022/08/26 11:47:50;;;;;;;7.25;1.35;;;;;;;23.23;68.61;101504.72;5083508;28;20037;-74
2022/08/26 11:50:24;;;;;;;7.18;1.50;;;;;;;23.17;67.82;101500.63;5094735;28;20110;-74
2022/08/26 11:53:04;;;;;;;9.27;1.63;;;;;;;23.09;68.84;101500.34;5091271;28;20048;-72
2022/08/26 11:55:42;;;;;;;6.78;1.33;;;;;;;23.00;68.20;101509.91;5087931;28;20102;-72
2022/08/26 11:58:11;;;;;;;7.53;1.20;;;;;;;22.91;67.48;101508.78;5088145;28;20036;-74